Time;durP1;ratioP1;P1;durP2;ratioP2;P2;SDS_P1;SDS_P2;PMS_P1;PMS_P2;Temp;Humidity;BMP_temperature;BMP_pressure;BME280_temperature;BME280_humidity;BME280_pressure;Samples;Min_cycle;Max_cycle;Signal;HPM_P1;HPM_P2
2022/01/14 00:00:03;;;;;;;20.20;9.58;;;;;;;1.86;54.36;101889.77;1740605;81;25787;-62
2022/01/14 00:02:34;;;;;;;21.37;9.70;;;;;;;1.87;54.17;101890.17;1743824;81;25732;-62
2022/01/14 00:05:01;;;;;;;17.52;9.03;;;;;;;1.88;54.07;101887.94;1736354;82;27351;-62
2022/01/14 00:07:27;;;;;;;21.23;10.53;;;;;;;1.90;53.70;101892.33;1728432;81;26465;-62
2022/01/14 00:09:54;;;;;;;25.08;10.43;;;;;;;1.93;53.67;101885.13;1740186;81;25703;-62
2022/01/14 00:12:27;;;;;;;20.90;9.55;;;;;;;1.95;53.42;101894.34;1708193;84;26037;-62
2022/01/14 00:15:00;;;;;;;13.60;7.55;;;;;;;1.94;53.39;101886.86;1710543;83;25759;-62
2022/01/14 00:17:29;;;;;;;19.50;9.63;;;;;;;1.95;53.03;101891.25;1712357;83;27580;-61
2022/01/14 00:19:56;;;;;;;15.03;8.65;;;;;;;1.97;53.08;101882.75;1712479;83;25743;-62
2022/01/14 00:22:27;;;;;;;18.65;9.48;;;;;;;1.99;53.20;101880.06;1712333;83;25754;-62
2022/01/14 00:33:22;;;;;;;22.15;10.00;;;;;;;2.04;53.31;101888.72;1763016;81;25727;-62
2022/01/14 00:35:51;;;;;;;16.10;9.20;;;;;;;2.05;53.24;101887.80;1759465;81;25914;-62
2022/01/14 00:38:18;;;;;;;19.52;9.70;;;;;;;2.05;53.26;101880.31;1763828;81;25802;-62
2022/01/14 00:40:49;;;;;;;18.48;8.48;;;;;;;2.02;53.15;101878.61;1762499;80;25811;-62
2022/01/14 00:43:21;;;;;;;25.05;8.53;;;;;;;1.99;53.19;101878.27;1765388;80;27425;-62
2022/01/14 00:46:07;;;;;;;16.23;9.95;;;;;;;1.96;53.25;101869.55;1771154;80;26326;-62
2022/01/14 00:48:42;;;;;;;19.00;9.68;;;;;;;1.94;53.33;101870.05;1776762;80;25805;-62
2022/01/14 00:51:28;;;;;;;17.45;9.05;;;;;;;1.92;53.39;101871.44;1775974;80;25759;-61
2022/01/14 00:53:53;;;;;;;21.20;9.43;;;;;;;1.92;53.52;101864.81;1757977;80;25741;-61
2022/01/14 00:56:30;;;;;;;20.50;9.13;;;;;;;1.88;53.56;101862.72;1778922;80;28212;-61
2022/01/14 01:01:51;;;;;;;16.27;9.68;;;;;;;1.90;53.68;101858.67;1741577;82;25649;-62
2022/01/14 01:04:35;;;;;;;21.33;10.05;;;;;;;1.86;53.77;101851.28;1713024;82;25797;-62
2022/01/14 01:07:07;;;;;;;16.62;8.88;;;;;;;1.82;53.91;101839.51;1705875;83;25827;-61
2022/01/14 01:09:37;;;;;;;18.90;9.40;;;;;;;1.79;53.99;101835.18;1696295;84;28411;-62
2022/01/14 01:12:13;;;;;;;20.68;10.95;;;;;;;1.80;53.95;101821.44;1763922;81;25688;-62
2022/01/14 01:14:46;;;;;;;20.85;10.40;;;;;;;1.83;54.05;101822.67;1763823;81;33001;-62
2022/01/14 01:17:13;;;;;;;19.65;10.00;;;;;;;1.84;54.01;101817.77;1763859;81;25887;-62
2022/01/14 01:19:41;;;;;;;15.05;8.48;;;;;;;1.83;53.95;101811.61;1764239;81;25744;-60
2022/01/14 01:22:08;;;;;;;19.00;9.13;;;;;;;1.86;53.93;101814.14;1764151;81;27473;-61
2022/01/14 01:24:40;;;;;;;15.80;8.55;;;;;;;1.86;53.94;101804.00;1760966;80;25762;-61
2022/01/14 01:27:09;;;;;;;18.45;9.23;;;;;;;1.86;53.94;101810.16;1777104;80;25805;-61
2022/01/14 01:32:09;;;;;;;17.07;9.50;;;;;;;1.87;53.93;101806.59;1778427;80;25697;-61
2022/01/14 01:34:37;;;;;;;22.70;9.78;;;;;;;1.88;54.02;101803.02;1779248;80;27507;-61
2022/01/14 01:37:04;;;;;;;14.70;8.30;;;;;;;1.92;54.08;101813.06;1764216;80;25774;-61
2022/01/14 01:39:36;;;;;;;16.67;8.75;;;;;;;1.91;53.84;101799.86;1754897;81;25781;-61
2022/01/14 01:42:08;;;;;;;16.50;8.33;;;;;;;1.90;53.92;101800.77;1769578;80;25791;-61
2022/01/14 01:44:38;;;;;;;15.32;8.30;;;;;;;1.90;53.84;101786.18;1779101;80;25749;-61
2022/01/14 01:47:07;;;;;;;20.45;8.88;;;;;;;1.93;53.82;101779.45;1778850;80;28127;-61
2022/01/14 01:49:37;;;;;;;17.62;7.80;;;;;;;1.95;53.66;101776.25;1778977;80;25472;-61
2022/01/14 01:52:05;;;;;;;15.20;8.03;;;;;;;1.94;53.72;101776.72;1778902;80;25745;-61
2022/01/14 01:54:32;;;;;;;16.70;8.60;;;;;;;1.96;53.80;101777.55;1779008;80;25748;-61
2022/01/14 01:57:00;;;;;;;15.60;8.30;;;;;;;1.93;53.66;101769.68;1778991;80;25771;-61
2022/01/14 01:59:28;;;;;;;12.58;7.62;;;;;;;1.90;53.64;101768.93;1779169;80;28152;-61
2022/01/14 02:01:58;;;;;;;18.73;8.55;;;;;;;1.85;53.73;101767.30;1778643;80;25801;-61
2022/01/14 02:04:27;;;;;;;14.40;7.85;;;;;;;1.87;53.81;101764.61;1765317;80;25723;-61
2022/01/14 02:06:56;;;;;;;14.05;7.97;;;;;;;1.85;53.87;101755.35;1763354;80;25878;-61
2022/01/14 02:09:24;;;;;;;17.32;8.63;;;;;;;1.87;53.87;101749.53;1764075;80;25741;-61
2022/01/14 02:11:52;;;;;;;15.32;8.30;;;;;;;1.88;53.80;101751.27;1761636;81;28144;-60
2022/01/14 02:14:39;;;;;;;13.15;7.22;;;;;;;1.87;53.79;101746.03;1763976;81;25810;-61
2022/01/14 02:17:31;;;;;;;16.82;8.70;;;;;;;1.83;53.74;101739.97;1761877;81;25800;-60
2022/01/14 02:19:45;;;;;;;12.63;7.90;;;;;;;1.81;53.85;101736.95;1758193;80;29038;-61
2022/01/14 02:22:12;;;;;;;13.68;7.05;;;;;;;1.81;53.79;101736.50;1760361;81;25777;-61
2022/01/14 02:27:09;;;;;;;14.43;6.97;;;;;;;1.81;53.88;101735.17;1748257;81;27331;-61
2022/01/14 02:29:36;;;;;;;14.33;7.75;;;;;;;1.76;53.96;101717.69;1746800;81;25449;-61
2022/01/14 02:32:08;;;;;;;14.47;7.30;;;;;;;1.69;54.02;101717.92;1749504;81;26597;-62
2022/01/14 02:34:37;;;;;;;13.38;6.83;;;;;;;1.65;54.00;101720.73;1749021;80;25716;-61
2022/01/14 02:37:07;;;;;;;13.22;7.97;;;;;;;1.61;54.04;101709.82;1752883;80;27416;-61
2022/01/14 02:39:34;;;;;;;15.63;7.55;;;;;;;1.54;54.07;101716.68;1754321;80;25861;-61
2022/01/14 02:42:04;;;;;;;15.78;8.13;;;;;;;1.50;54.22;101700.94;1772348;80;25837;-62
2022/01/14 02:44:32;;;;;;;16.27;8.23;;;;;;;1.47;54.18;101696.61;1746256;82;26436;-61
2022/01/14 02:47:05;;;;;;;20.62;7.65;;;;;;;1.46;54.22;101706.81;1784045;79;25813;-62
2022/01/14 02:49:31;;;;;;;14.03;7.12;;;;;;;1.41;54.15;101702.11;1745993;81;27473;-62
2022/01/14 02:52:02;;;;;;;11.95;7.08;;;;;;;1.37;54.26;101695.20;1784430;79;25905;-61
2022/01/14 02:54:41;;;;;;;14.10;7.62;;;;;;;1.34;54.19;101697.50;1746162;81;25730;-62
2022/01/14 02:57:06;;;;;;;12.88;6.87;;;;;;;1.31;54.23;101688.77;1740677;81;25784;-61
2022/01/14 02:59:35;;;;;;;11.57;6.75;;;;;;;1.32;54.22;101698.45;1714172;83;25845;-61
2022/01/14 03:02:06;;;;;;;13.45;6.70;;;;;;;1.34;54.28;101701.48;1746676;80;27428;-61
2022/01/14 03:04:39;;;;;;;13.78;7.03;;;;;;;1.34;54.24;101689.55;1741194;81;25773;-61
2022/01/14 03:07:04;;;;;;;14.58;7.53;;;;;;;1.30;54.08;101695.87;1746661;80;25952;-62
2022/01/14 03:09:31;;;;;;;13.80;7.58;;;;;;;1.26;54.19;101707.48;1741339;82;25720;-61
2022/01/14 03:12:02;;;;;;;12.15;7.50;;;;;;;1.20;54.26;101691.36;1723005;83;25710;-61
2022/01/14 03:14:31;;;;;;;10.75;6.83;;;;;;;1.17;54.34;101686.59;1722853;83;28135;-61
2022/01/14 03:16:59;;;;;;;12.68;6.62;;;;;;;1.01;53.78;101686.27;1722868;83;25811;-61
2022/01/14 03:19:27;;;;;;;12.40;6.45;;;;;;;0.84;53.87;101677.11;1722797;83;25728;-61
2022/01/14 03:22:18;;;;;;;13.95;6.50;;;;;;;0.74;53.97;101676.53;1722785;83;25836;-61
2022/01/14 03:27:08;;;;;;;11.95;6.10;;;;;;;0.61;54.00;101667.27;1715839;82;27446;-61
2022/01/14 03:29:36;;;;;;;15.50;7.60;;;;;;;0.55;54.06;101668.33;1739243;82;25700;-60
2022/01/14 03:32:04;;;;;;;11.63;6.50;;;;;;;0.53;54.17;101664.86;1740621;82;26395;-61
2022/01/14 03:34:32;;;;;;;13.10;6.92;;;;;;;0.48;54.32;101654.01;1740218;81;25789;-61
2022/01/14 03:36:59;;;;;;;13.32;6.83;;;;;;;0.45;54.37;101649.21;1740426;82;26026;-61
2022/01/14 03:39:26;;;;;;;15.28;7.80;;;;;;;0.42;54.51;101644.03;1740340;82;27527;-61
2022/01/14 03:41:53;;;;;;;14.98;7.67;;;;;;;0.38;54.64;101645.51;1757103;81;25757;-61
2022/01/14 03:44:20;;;;;;;15.45;6.92;;;;;;;0.33;54.82;101646.09;1770769;81;25672;-61
2022/01/14 03:46:47;;;;;;;16.55;7.15;;;;;;;0.27;55.04;101645.86;1770741;81;25790;-60
2022/01/14 03:49:14;;;;;;;15.60;7.37;;;;;;;0.23;55.29;101636.27;1770908;81;25611;-61
2022/01/14 03:51:42;;;;;;;12.45;7.40;;;;;;;0.18;55.46;101638.20;1770852;80;27461;-60
2022/01/14 03:54:09;;;;;;;14.18;7.78;;;;;;;0.12;55.64;101628.67;1770908;81;25919;-60
2022/01/14 03:56:36;;;;;;;15.03;7.75;;;;;;;0.06;55.77;101628.41;1771051;81;25755;-60
2022/01/14 03:59:04;;;;;;;14.40;7.30;;;;;;;0.03;55.95;101623.66;1770824;79;25782;-60
2022/01/14 04:01:31;;;;;;;12.05;6.97;;;;;;;-0.02;55.79;101626.45;1771021;81;25833;-60
2022/01/14 04:03:58;;;;;;;14.03;6.90;;;;;;;-0.09;55.98;101625.77;1770954;80;29635;-60
2022/01/14 04:06:25;;;;;;;16.95;7.08;;;;;;;-0.16;56.18;101622.43;1770731;80;25485;-60
2022/01/14 04:08:54;;;;;;;15.70;7.12;;;;;;;-0.21;56.37;101622.16;1780626;80;25695;-60
2022/01/14 04:11:22;;;;;;;27.27;11.60;;;;;;;-0.28;56.39;101611.36;1781334;80;26226;-60
2022/01/14 04:13:54;;;;;;;14.65;6.92;;;;;;;-0.29;56.42;101607.86;1743658;82;25794;-61
2022/01/14 04:16:21;;;;;;;13.35;6.78;;;;;;;-0.34;56.78;101600.50;1781278;79;28113;-60
2022/01/14 04:18:50;;;;;;;22.37;7.87;;;;;;;-0.41;56.82;101591.02;1781543;79;25727;-60
2022/01/14 04:21:19;;;;;;;17.90;6.97;;;;;;;-0.46;56.89;101579.27;1781367;80;25718;-60
2022/01/14 04:23:46;;;;;;;15.48;7.92;;;;;;;-0.50;57.26;101585.09;1770486;80;26426;-61
2022/01/14 04:26:14;;;;;;;26.57;8.68;;;;;;;-0.48;57.29;101579.31;1742248;82;25710;-60
2022/01/14 04:28:41;;;;;;;20.82;9.08;;;;;;;-0.51;57.25;101568.83;1712539;82;28304;-59
2022/01/14 04:31:10;;;;;;;18.52;7.80;;;;;;;-0.52;57.36;101572.84;1718467;82;25756;-60
2022/01/14 04:33:37;;;;;;;17.02;7.60;;;;;;;-0.54;57.43;101572.87;1718474;83;25800;-60
2022/01/14 04:36:06;;;;;;;17.87;8.88;;;;;;;-0.59;57.36;101573.47;1718441;83;25800;-59
2022/01/14 04:38:36;;;;;;;14.13;7.97;;;;;;;-0.64;57.43;101576.72;1718400;83;25845;-60
2022/01/14 04:41:04;;;;;;;15.53;8.20;;;;;;;-0.75;58.00;101580.11;1718155;82;27443;-60
2022/01/14 04:43:33;;;;;;;24.10;9.43;;;;;;;-0.88;58.34;101583.09;1712295;82;25727;-60
2022/01/14 04:48:35;;;;;;;15.70;8.08;;;;;;;-0.99;58.45;101568.86;1712381;83;26491;-60
2022/01/14 04:51:08;;;;;;;22.02;9.55;;;;;;;-1.02;58.79;101564.97;1713901;83;25814;-60
2022/01/14 04:53:36;;;;;;;16.63;7.93;;;;;;;-1.05;58.64;101570.80;1704124;82;27488;-59
2022/01/14 04:56:04;;;;;;;19.50;8.90;;;;;;;-1.11;59.04;101567.43;1699152;83;25487;-60
2022/01/14 04:58:36;;;;;;;16.73;8.28;;;;;;;-1.15;59.17;101562.27;1697160;83;25735;-60
2022/01/14 05:01:05;;;;;;;24.30;8.93;;;;;;;-1.22;59.32;101574.77;1684251;85;25858;-60
2022/01/14 05:03:35;;;;;;;17.55;8.75;;;;;;;-1.25;59.27;101570.88;1710722;83;25707;-60
2022/01/14 05:06:05;;;;;;;20.55;8.05;;;;;;;-1.23;59.21;101570.86;1709814;83;27513;-60
2022/01/14 05:08:36;;;;;;;18.32;8.83;;;;;;;-1.24;59.41;101573.08;1713070;83;26346;-60
2022/01/14 05:11:04;;;;;;;17.23;8.43;;;;;;;-1.23;59.28;101563.78;1747638;82;25706;-60
2022/01/14 05:13:28;;;;;;;28.23;9.48;;;;;;;-1.19;59.05;101565.89;1714349;83;25493;-59
2022/01/14 05:15:55;;;;;;;22.05;8.93;;;;;;;-1.19;59.15;101564.56;1746772;81;27327;-60
2022/01/14 05:18:23;;;;;;;27.32;8.70;;;;;;;-1.20;59.11;101572.07;1714508;83;27538;-60
2022/01/14 05:20:52;;;;;;;22.02;9.78;;;;;;;-1.20;59.11;101577.35;1748282;81;26210;-61
2022/01/14 05:23:19;;;;;;;20.85;9.53;;;;;;;-1.24;59.17;101581.85;1751933;80;25886;-61
2022/01/14 05:25:49;;;;;;;24.82;12.05;;;;;;;-1.26;59.11;101570.48;1781422;80;25850;-61
2022/01/14 05:28:16;;;;;;;30.72;10.28;;;;;;;-1.29;59.02;101575.38;1731611;82;25481;-60
2022/01/14 05:30:43;;;;;;;22.65;8.93;;;;;;;-1.29;59.21;101562.17;1760010;80;27459;-60
2022/01/14 05:33:10;;;;;;;18.02;8.95;;;;;;;-1.30;59.46;101570.14;1752092;81;25755;-61
2022/01/14 05:35:37;;;;;;;19.82;8.88;;;;;;;-1.31;59.35;101560.05;1752179;81;25682;-60
2022/01/14 05:38:04;;;;;;;24.35;9.00;;;;;;;-1.30;59.42;101553.84;1752537;81;25873;-61
2022/01/14 05:40:31;;;;;;;28.80;9.53;;;;;;;-1.29;59.38;101559.53;1752275;81;25734;-61
2022/01/14 05:42:59;;;;;;;24.98;11.18;;;;;;;-1.27;59.20;101555.55;1732716;80;27425;-61
2022/01/14 05:45:27;;;;;;;17.32;8.60;;;;;;;-1.27;59.22;101554.23;1749310;81;25763;-61
2022/01/14 05:47:54;;;;;;;26.35;9.43;;;;;;;-1.27;59.18;101543.67;1756790;80;26048;-61
2022/01/14 05:50:24;;;;;;;28.00;9.95;;;;;;;-1.28;59.30;101539.30;1757560;80;25843;-61
2022/01/14 05:52:52;;;;;;;29.40;10.32;;;;;;;-1.30;59.28;101537.14;1758224;81;25770;-61
2022/01/14 05:55:21;;;;;;;26.15;10.13;;;;;;;-1.33;59.38;101535.89;1759051;81;27471;-61
2022/01/14 05:57:48;;;;;;;20.70;9.38;;;;;;;-1.36;59.36;101532.89;1711443;83;25782;-62
2022/01/14 06:00:19;;;;;;;26.33;10.28;;;;;;;-1.36;59.34;101518.37;1712475;83;25736;-61
2022/01/14 06:02:48;;;;;;;28.32;11.90;;;;;;;-1.36;59.38;101514.41;1713452;83;25786;-61
2022/01/14 06:05:16;;;;;;;34.92;14.23;;;;;;;-1.38;59.40;101513.58;1714583;83;25747;-62
2022/01/14 06:07:44;;;;;;;24.18;11.05;;;;;;;-1.38;59.76;101515.37;1713330;82;27475;-61
2022/01/14 06:10:11;;;;;;;23.12;10.63;;;;;;;-1.44;59.84;101511.11;1683376;83;25787;-61
2022/01/14 06:12:41;;;;;;;23.90;10.23;;;;;;;-1.44;59.67;101509.36;1716655;83;25756;-62
2022/01/14 06:15:09;;;;;;;22.42;12.75;;;;;;;-1.45;59.79;101503.66;1737255;82;26474;-61
2022/01/14 06:17:36;;;;;;;31.60;11.35;;;;;;;-1.44;59.71;101497.92;1698606;83;25727;-61
2022/01/14 06:20:09;;;;;;;22.93;11.22;;;;;;;-1.42;59.92;101496.11;1717749;82;28594;-61
2022/01/14 06:22:37;;;;;;;24.95;11.78;;;;;;;-1.41;59.68;101487.28;1769497;81;25765;-61
2022/01/14 06:25:05;;;;;;;29.30;11.83;;;;;;;-1.43;59.93;101477.22;1747453;81;25802;-61
2022/01/14 06:27:34;;;;;;;22.62;10.08;;;;;;;-1.42;59.75;101474.53;1710320;83;25839;-61
2022/01/14 06:30:03;;;;;;;21.97;9.98;;;;;;;-1.40;59.78;101470.98;1749684;81;25785;-61
2022/01/14 06:32:30;;;;;;;22.55;10.78;;;;;;;-1.39;59.97;101470.93;1764325;81;28136;-62
2022/01/14 06:34:58;;;;;;;27.80;11.65;;;;;;;-1.38;59.76;101463.89;1759711;81;25998;-62
2022/01/14 06:37:26;;;;;;;25.17;10.70;;;;;;;-1.36;59.79;101457.66;1759987;81;25786;-61
2022/01/14 06:39:54;;;;;;;31.33;12.20;;;;;;;-1.33;59.67;101450.11;1759264;81;25848;-61
2022/01/14 06:42:21;;;;;;;54.08;11.30;;;;;;;-1.30;59.72;101445.60;1751506;80;25879;-60
2022/01/14 06:44:50;;;;;;;28.57;11.43;;;;;;;-1.23;59.65;101445.45;1753565;80;27474;-60
2022/01/14 06:47:17;;;;;;;23.32;10.78;;;;;;;-1.20;59.58;101442.27;1753929;81;25808;-60
2022/01/14 06:49:43;;;;;;;35.83;13.35;;;;;;;-1.19;59.43;101433.87;1720633;82;25562;-61
2022/01/14 06:52:10;;;;;;;26.68;12.28;;;;;;;-1.18;59.43;101426.37;1761896;80;25840;-60
2022/01/14 06:54:37;;;;;;;31.73;12.73;;;;;;;-1.18;59.59;101421.97;1764526;80;25652;-60
2022/01/14 06:57:05;;;;;;;22.40;12.05;;;;;;;-1.15;59.65;101409.13;1764510;81;27470;-60
2022/01/14 06:59:32;;;;;;;31.60;13.03;;;;;;;-1.08;59.66;101399.25;1764017;80;25824;-60
2022/01/14 07:02:03;;;;;;;29.05;13.40;;;;;;;-1.03;59.43;101397.33;1760683;80;25731;-61
2022/01/14 07:04:34;;;;;;;25.52;13.08;;;;;;;-1.01;59.38;101391.55;1763531;81;26592;-61
2022/01/14 07:07:03;;;;;;;21.55;11.88;;;;;;;-0.99;59.26;101385.30;1764026;81;25766;-61
2022/01/14 07:09:31;;;;;;;31.20;13.88;;;;;;;-0.95;59.18;101379.47;1758825;81;27538;-61
2022/01/14 07:12:00;;;;;;;28.98;13.40;;;;;;;-0.90;59.24;101370.08;1756033;80;26028;-61
2022/01/14 07:14:29;;;;;;;29.48;14.75;;;;;;;-0.84;59.29;101366.80;1759226;81;25684;-61
2022/01/14 07:16:57;;;;;;;34.75;13.40;;;;;;;-0.77;59.25;101358.67;1748423;80;26846;-60
2022/01/14 07:19:26;;;;;;;29.67;12.95;;;;;;;-0.71;59.34;101362.43;1747669;81;26041;-60
2022/01/14 07:21:53;;;;;;;27.17;12.73;;;;;;;-0.66;59.28;101365.34;1744396;81;28314;-60
2022/01/14 07:24:20;;;;;;;30.30;12.55;;;;;;;-0.59;59.18;101372.62;1756172;81;25764;-59
2022/01/14 07:26:50;;;;;;;28.62;13.85;;;;;;;-0.51;58.90;101367.09;1731524;82;25652;-59
2022/01/14 07:29:16;;;;;;;30.77;13.95;;;;;;;-0.43;58.87;101353.60;1718473;83;25800;-60
2022/01/14 07:31:43;;;;;;;32.80;15.72;;;;;;;-0.41;58.83;101356.63;1718560;82;25731;-60
2022/01/14 07:34:12;;;;;;;28.35;14.23;;;;;;;-0.35;58.98;101350.24;1716465;82;28270;-60
2022/01/14 07:36:38;;;;;;;34.88;13.98;;;;;;;-0.28;58.91;101345.63;1757453;81;25661;-60
2022/01/14 07:39:06;;;;;;;38.90;15.13;;;;;;;-0.20;58.66;101339.61;1713437;83;25772;-59
2022/01/14 07:41:33;;;;;;;31.85;15.88;;;;;;;-0.13;58.49;101338.47;1709776;83;26461;-59
2022/01/14 07:44:05;;;;;;;40.52;15.50;;;;;;;-0.07;58.30;101338.28;1714773;82;25715;-59
2022/01/14 07:46:32;;;;;;;39.08;15.85;;;;;;;-0.01;58.27;101326.62;1712324;83;27521;-59
2022/01/14 07:48:58;;;;;;;38.28;17.20;;;;;;;0.12;58.06;101321.28;1712515;83;25716;-59
2022/01/14 07:51:28;;;;;;;47.90;18.07;;;;;;;0.25;57.86;101322.17;1711105;83;25654;-59
2022/01/14 07:53:57;;;;;;;44.27;17.50;;;;;;;0.36;57.81;101321.29;1699901;83;25828;-59
2022/01/14 07:56:25;;;;;;;38.73;17.37;;;;;;;0.46;57.42;101304.15;1712686;83;25780;-59
2022/01/14 07:58:52;;;;;;;40.70;18.23;;;;;;;0.59;57.67;101301.05;1712195;83;27480;-60
2022/01/14 08:01:18;;;;;;;38.35;17.17;;;;;;;0.74;57.60;101302.25;1713642;82;25966;-60
2022/01/14 08:03:45;;;;;;;40.70;17.92;;;;;;;0.85;57.52;101302.66;1714511;82;25739;-60
2022/01/14 08:06:13;;;;;;;42.03;18.20;;;;;;;1.01;56.74;101299.42;1698065;83;26485;-60
2022/01/14 08:08:42;;;;;;;32.45;14.40;;;;;;;1.14;57.15;101301.12;1712211;82;25854;-60
2022/01/14 08:11:08;;;;;;;30.00;14.85;;;;;;;1.30;56.33;101294.73;1706720;83;27389;-60
2022/01/14 08:13:35;;;;;;;32.85;15.13;;;;;;;1.42;56.48;101294.20;1687468;84;25738;-60
2022/01/14 08:16:04;;;;;;;26.57;13.55;;;;;;;1.56;55.76;101287.87;1717449;82;25716;-60
2022/01/14 08:18:31;;;;;;;26.90;14.18;;;;;;;1.68;55.40;101293.55;1687610;83;25809;-60
2022/01/14 08:20:59;;;;;;;37.38;15.50;;;;;;;1.81;55.14;101282.83;1687146;83;25811;-60
2022/01/14 08:23:26;;;;;;;39.50;15.70;;;;;;;1.92;54.54;101281.50;1707921;83;28369;-61
2022/01/14 08:25:57;;;;;;;32.13;15.65;;;;;;;2.04;54.45;101284.91;1738254;81;25921;-60
2022/01/14 08:28:28;;;;;;;28.87;13.70;;;;;;;2.15;54.12;101287.95;1751614;81;25513;-60
2022/01/14 08:30:55;;;;;;;32.10;13.72;;;;;;;2.27;54.04;101293.65;1761377;80;25768;-60
2022/01/14 08:33:23;;;;;;;46.60;16.27;;;;;;;2.42;53.64;101287.63;1756918;81;25866;-60
2022/01/14 08:35:51;;;;;;;34.55;17.73;;;;;;;2.54;53.31;101288.00;1734135;80;27481;-60
2022/01/14 08:38:18;;;;;;;33.28;15.88;;;;;;;2.74;53.91;101290.56;1753703;81;25774;-60
2022/01/14 08:40:45;;;;;;;40.65;15.53;;;;;;;3.04;52.69;101291.84;1726891;81;25746;-60
2022/01/14 08:43:12;;;;;;;40.48;15.93;;;;;;;3.60;51.80;101295.27;1683374;84;26529;-60
2022/01/14 08:45:39;;;;;;;45.40;16.35;;;;;;;4.38;50.63;101283.61;1683515;84;25896;-61
2022/01/14 08:48:06;;;;;;;39.25;17.10;;;;;;;5.06;48.85;101285.66;1683101;84;27470;-60
2022/01/14 08:50:36;;;;;;;37.03;17.17;;;;;;;5.61;47.72;101288.72;1683219;84;25904;-61
2022/01/14 08:53:07;;;;;;;45.70;18.87;;;;;;;6.16;46.42;101289.02;1680005;85;25873;-63
2022/01/14 08:55:36;;;;;;;36.30;17.00;;;;;;;6.61;45.43;101276.86;1676536;83;25862;-61
2022/01/14 08:58:05;;;;;;;45.88;16.97;;;;;;;7.00;44.91;101262.72;1745354;80;25812;-61
2022/01/14 09:00:35;;;;;;;41.15;16.52;;;;;;;7.51;43.85;101252.65;1743752;80;28126;-61
2022/01/14 09:03:03;;;;;;;29.00;14.23;;;;;;;7.85;42.98;101258.84;1748781;80;25664;-61
2022/01/14 09:05:31;;;;;;;32.13;15.08;;;;;;;8.14;41.99;101247.92;1746960;80;25716;-62
2022/01/14 09:08:03;;;;;;;28.85;14.68;;;;;;;8.55;41.31;101247.29;1742452;80;25781;-61
2022/01/14 09:10:30;;;;;;;27.35;13.62;;;;;;;8.75;39.73;101245.33;1769811;80;25770;-62
2022/01/14 09:12:56;;;;;;;24.00;12.37;;;;;;;9.08;39.16;101243.81;1769875;81;27456;-62
2022/01/14 09:15:24;;;;;;;31.68;13.60;;;;;;;9.28;37.80;101240.09;1768991;81;25485;-62
2022/01/14 09:17:51;;;;;;;20.90;11.73;;;;;;;9.57;39.31;101224.09;1761378;80;25813;-61
2022/01/14 09:20:20;;;;;;;23.57;12.98;;;;;;;10.01;38.84;101213.88;1732741;82;25824;-62
2022/01/14 09:22:48;;;;;;;22.98;12.00;;;;;;;10.30;36.68;101212.54;1702744;83;25740;-62
2022/01/14 09:25:18;;;;;;;20.88;11.70;;;;;;;10.36;36.61;101209.81;1702982;83;27480;-62
2022/01/14 09:27:50;;;;;;;18.00;10.95;;;;;;;10.58;36.84;101196.37;1734243;81;25487;-62
2022/01/14 09:30:17;;;;;;;20.23;11.35;;;;;;;10.92;37.31;101178.77;1710369;83;25654;-62
2022/01/14 09:32:44;;;;;;;15.98;9.78;;;;;;;11.59;38.61;101171.33;1708587;83;25791;-63
2022/01/14 09:35:13;;;;;;;22.00;10.98;;;;;;;12.01;36.78;101166.36;1723657;82;26199;-62
2022/01/14 09:37:49;;;;;;;15.98;9.80;;;;;;;12.01;33.50;101160.13;1728687;82;27608;-62
2022/01/14 09:40:18;;;;;;;16.62;10.30;;;;;;;11.64;32.31;101155.23;1712537;83;25739;-62
2022/01/14 09:42:49;;;;;;;19.35;10.63;;;;;;;11.61;32.65;101160.91;1715245;82;25764;-62
2022/01/14 09:45:21;;;;;;;23.27;11.10;;;;;;;11.47;32.31;101157.56;1712484;83;25795;-63
2022/01/14 09:47:52;;;;;;;13.85;9.28;;;;;;;11.52;32.26;101146.38;1733631;81;25789;-63
2022/01/14 09:50:20;;;;;;;14.05;8.53;;;;;;;11.73;32.96;101134.22;1707918;83;27485;-62
2022/01/14 09:52:49;;;;;;;15.88;9.23;;;;;;;12.16;32.90;101121.50;1697057;84;25763;-63
2022/01/14 09:55:17;;;;;;;17.40;9.50;;;;;;;12.47;32.65;101123.62;1688912;83;25694;-62
2022/01/14 09:57:45;;;;;;;16.07;7.85;;;;;;;12.84;33.01;101123.41;1687236;84;25744;-62
2022/01/14 10:00:16;;;;;;;15.53;8.13;;;;;;;13.32;32.50;101117.59;1727834;83;25839;-62
2022/01/14 10:02:44;;;;;;;14.38;7.87;;;;;;;13.75;32.34;101122.13;1715061;83;27483;-62
2022/01/14 10:05:32;;;;;;;13.03;8.60;;;;;;;14.07;29.93;101124.39;1714618;82;25795;-62
2022/01/14 10:08:25;;;;;;;17.00;9.63;;;;;;;14.28;30.74;101104.83;1715210;83;25664;-62
2022/01/14 10:10:54;;;;;;;18.42;9.73;;;;;;;14.46;29.86;101108.41;1717259;82;25952;-63
2022/01/14 10:13:23;;;;;;;;;;;;;;;14.85;28.64;101095.95;1758944;80;25809;-62
2022/01/14 10:15:55;;;;;;;24.92;9.55;;;;;;;14.61;26.65;101092.48;1751247;80;28164;-62
2022/01/14 10:18:23;;;;;;;12.90;8.00;;;;;;;14.69;27.37;101089.05;1753347;81;25837;-62
2022/01/14 10:20:54;;;;;;;13.70;7.70;;;;;;;14.50;27.92;101087.30;1759945;80;25511;-62
2022/01/14 10:23:43;;;;;;;11.73;7.47;;;;;;;14.42;27.17;101095.34;1758508;81;25838;-62
2022/01/14 10:26:12;;;;;;;11.78;7.70;;;;;;;14.17;27.64;101090.50;1749715;82;25748;-61
2022/01/14 10:28:46;;;;;;;11.90;8.60;;;;;;;14.54;29.21;101078.71;1757613;81;28183;-61
2022/01/14 10:31:13;;;;;;;15.55;8.50;;;;;;;14.49;27.74;101076.98;1765974;81;25738;-62
2022/01/14 10:33:40;;;;;;;16.90;9.73;;;;;;;14.82;28.84;101074.59;1769798;81;25786;-61
2022/01/14 10:36:12;;;;;;;17.37;11.70;;;;;;;14.74;26.52;101085.88;1769912;80;26419;-62
2022/01/14 10:38:46;;;;;;;17.52;10.75;;;;;;;14.65;27.88;101057.34;1752071;81;25724;-62
2022/01/14 10:41:11;;;;;;;25.32;13.18;;;;;;;14.31;27.34;101060.72;1754684;81;27561;-61
2022/01/14 10:43:39;;;;;;;21.87;12.43;;;;;;;14.13;28.07;101058.02;1722849;81;25847;-64
2022/01/14 10:46:10;;;;;;;28.38;15.25;;;;;;;14.29;28.26;101047.88;1728258;81;46125;-65
2022/01/14 10:48:43;;;;;;;19.27;12.10;;;;;;;14.65;28.78;101041.09;1739490;82;25824;-64
2022/01/14 10:51:14;;;;;;;22.35;12.88;;;;;;;15.24;28.89;101047.28;1707031;82;25785;-64
2022/01/14 10:53:46;;;;;;;31.65;16.20;;;;;;;15.35;27.97;101046.16;1699620;83;28404;-64
2022/01/14 10:56:19;;;;;;;26.95;14.20;;;;;;;15.43;27.77;101023.67;1729447;82;25818;-64
2022/01/14 10:58:51;;;;;;;27.32;14.70;;;;;;;15.63;28.38;101018.34;1705995;83;25718;-63
2022/01/14 11:01:22;;;;;;;22.27;13.05;;;;;;;15.70;27.83;101014.97;1728102;82;26751;-63
2022/01/14 11:04:01;;;;;;;20.80;13.08;;;;;;;15.94;28.65;101006.94;1765978;80;25782;-63
2022/01/14 11:06:36;;;;;;;30.82;15.60;;;;;;;16.33;27.60;100994.60;1785829;79;27484;-63
2022/01/14 11:09:13;;;;;;;20.27;13.22;;;;;;;16.49;27.40;100980.72;1777069;80;25813;-63
2022/01/14 11:11:44;;;;;;;29.40;14.85;;;;;;;16.13;26.46;100981.87;1778556;79;25740;-63
2022/01/14 11:14:13;;;;;;;19.02;12.47;;;;;;;15.70;26.81;100964.80;1757718;81;25820;-63
2022/01/14 11:16:42;;;;;;;21.62;13.08;;;;;;;15.53;26.75;100959.33;1723274;82;26034;-62
2022/01/14 11:19:09;;;;;;;22.40;13.55;;;;;;;15.17;27.46;100945.97;1714312;82;27413;-64
2022/01/14 11:24:34;;;;;;;19.57;12.63;;;;;;;15.24;27.23;100942.95;1720131;82;25821;-62
2022/01/14 11:27:26;;;;;;;23.40;12.47;;;;;;;15.48;28.31;100924.58;1719021;82;25831;-62
2022/01/14 11:29:58;;;;;;;20.43;12.60;;;;;;;15.91;27.31;100910.11;1789629;78;25616;-62
2022/01/14 11:32:25;;;;;;;25.32;13.98;;;;;;;15.56;27.01;100906.11;1785911;79;27472;-64
2022/01/14 11:34:52;;;;;;;24.70;13.25;;;;;;;15.46;28.03;100891.88;1786112;79;25653;-63
2022/01/14 11:37:32;;;;;;;21.42;13.30;;;;;;;15.55;28.30;100880.03;1785960;79;25699;-63
2022/01/14 11:40:07;;;;;;;21.05;13.55;;;;;;;15.22;27.47;100884.51;1787253;79;25787;-62
2022/01/14 11:42:47;;;;;;;23.42;12.80;;;;;;;14.59;28.66;100877.91;1786379;79;25751;-63
2022/01/14 11:45:20;;;;;;;26.05;13.62;;;;;;;14.22;29.43;100871.75;1801451;79;28494;-63
2022/01/14 11:47:49;;;;;;;28.80;12.98;;;;;;;14.03;30.03;100874.13;1734639;82;25854;-63
2022/01/14 11:50:24;;;;;;;23.70;12.98;;;;;;;13.51;30.07;100880.25;1792624;78;25715;-62